Angermuende, Germany

7:08 PM CET on February 10, 2016 (GMT +0100)
Goleniow | | Change Station
CLOSE
Current Station
Airport
Location: Szczecin,
Elevation: 151 ft
Nearby Weather Stations

Elev 151 ft 53.58 °N, 14.90 °E | Updated 8 minutes ago

Scattered Clouds
Scattered Clouds
32 °F
Feels Like 32 °F
N
2
Wind Variable Wind from SSE

Today
High -- | Low -- °F
--% Chance of Precip.
Yesterday
High -- | Low -- °F
Precip. -- in
Pressure 29.30 in
Visibility 6.2 miles
Clouds Scattered Clouds 3600 ft
Dew Point 28 °F
Humidity 87%
Rainfall 0.00 in
Snow Depth Not available.
7:32 AM 5:04 PM
Waxing Crescent, 6% visible
METAR EPSC 101800Z 15002KT 9999 SCT036 00/M02 Q0992
Pressure 29.30 in
Visibility 6.2 miles
Clouds Scattered Clouds 3600 ft
Dew Point 28 °F
Humidity 87%
Rainfall 0.00 in
Snow Depth Not available.
7:32 AM 5:04 PM
Waxing Crescent, 6% visible
METAR EPSC 101800Z 15002KT 9999 SCT036 00/M02 Q0992

10-Day Weather Forecast

Almanac

Astronomy

Feb. 10, 2016 Rise Set
Actual Time
Civil Twilight
Nautical Twilight
Astronomical Twilight
Moon
Length of Visible Light
Length of Day
Tomorrow will be .
, % of the Moon is Illuminated

Today's Extremes

Country Highs Country Lows

Community

WunderPhotos

Upload Photos

1,891,904 photos uploaded!

WunderBlog® & News

Nearby

Air Quality

  Air Quality AQ Index Pollutant
Not available.

Snow Depth

Station Depth Elevation

Earthquake Activity

City Distance Mag. Time & Date
Minimum magnitude displayed is 2.5.

Coastal Water Temperatures

Place Temperature

Stations

Nearby Weather Stations

Station Location Temp. Windchill Dew Point Humidity Wind Precip. Elev Updated Type